GEML

Melilla Airport

Melilla, Spain
TAF GEML 221400Z 2215/2315 01005KT CAVOK TX31/2215Z TN18/2302Z
Issued Valid From Valid To
Jul-22 @ 14:00 UTC
(6 hours ago)
Jul-22 @ 15:00 UTC
(5 hours ago)
Jul-23 @ 15:00 UTC
(in 19 hours)
Jul-22 @ 15:00 to Jul-23 @ 15:00
TAF GEML 221400Z 2215/2315 01005KT CAVOK TX31/2215Z TN18/2302Z
Wind Visibility Clouds
10° at 5 knots 10,000+ meters
  • No significant clouds
TAF GEML 221400Z 2215/2315 01005KT CAVOK TX31/2215Z TN18/2302Z
Issued Jul-22 @ 14:00 UTC
(6 hours ago)
Valid From Jul-22 @ 15:00 UTC
(5 hours ago)
Valid To Jul-23 @ 15:00 UTC
(in 19 hours)
Jul-22 @ 15:00 - Jul-23 @ 15:00
Wind Visibility
10° at 5 knots 10,000+ meters
Clouds
  • No significant clouds